METAR AND TAF INFORMATION
METAR FOR SBSP
ADDS - METARS form results

(0611 UTC 24 October 2018)
Data provider http://aviationweather.gov/metar/data/
 
METAR text: SBSP 240606Z AUTO 16009KT 4300 BR SCT001 OVC003 17/16 Q1019
Conditions at: SBSP (SAO PAULO/CONGON, BR) observed 0606 UTC 24 October 2018
Temperature: 17.0°C (63°F)
Dewpoint: 16.0°C (61°F) [RH = 94%]
Pressure (altimeter): 30.09 inches Hg (1019.0 mb)
Winds: from the SSE (160 degrees) at 10 MPH (9 knots; 4.6 m/s)
Visibility: 2.67 miles (4.30 km)
Ceiling: 300 feet AGL
Clouds: scattered clouds at 100 feet AGL
overcast cloud deck at 300 feet AGL
Weather: BR  (mist)

METAR text: SBSP 240600Z AUTO 16010KT 2700 BR SCT001 OVC003 17/16 Q1019
Conditions at: SBSP (SAO PAULO/CONGON, BR) observed 0600 UTC 24 October 2018
Temperature: 17.0°C (63°F)
Dewpoint: 16.0°C (61°F) [RH = 94%]
Pressure (altimeter): 30.09 inches Hg (1019.0 mb)
Winds: from the SSE (160 degrees) at 12 MPH (10 knots; 5.1 m/s)
Visibility: 1.68 miles (2.70 km)
Ceiling: 300 feet AGL
Clouds: scattered clouds at 100 feet AGL
overcast cloud deck at 300 feet AGL
Weather: BR  (mist)

METAR text: SBSP 240538Z AUTO 17010KT 2700 BR SCT001 OVC004 17/16 Q1019
Conditions at: SBSP (SAO PAULO/CONGON, BR) observed 0538 UTC 24 October 2018
Temperature: 17.0°C (63°F)
Dewpoint: 16.0°C (61°F) [RH = 94%]
Pressure (altimeter): 30.09 inches Hg (1019.0 mb)
Winds: from the S (170 degrees) at 12 MPH (10 knots; 5.1 m/s)
Visibility: 1.68 miles (2.70 km)
Ceiling: 400 feet AGL
Clouds: scattered clouds at 100 feet AGL
overcast cloud deck at 400 feet AGL
Weather: BR  (mist)

METAR text: SBSP 240530Z AUTO 17009KT 3600 BR SCT002 OVC004 17/16 Q1019
Conditions at: SBSP (SAO PAULO/CONGON, BR) observed 0530 UTC 24 October 2018
Temperature: 17.0°C (63°F)
Dewpoint: 16.0°C (61°F) [RH = 94%]
Pressure (altimeter): 30.09 inches Hg (1019.0 mb)
Winds: from the S (170 degrees) at 10 MPH (9 knots; 4.6 m/s)
Visibility: 2.24 miles (3.60 km)
Ceiling: 400 feet AGL
Clouds: scattered clouds at 200 feet AGL
overcast cloud deck at 400 feet AGL
Weather: BR  (mist)

METAR text: SBSP 240516Z AUTO 16009KT 2900 BR SCT002 OVC004 18/16 Q1019
Conditions at: SBSP (SAO PAULO/CONGON, BR) observed 0516 UTC 24 October 2018
Temperature: 18.0°C (64°F)
Dewpoint: 16.0°C (61°F) [RH = 88%]
Pressure (altimeter): 30.09 inches Hg (1019.0 mb)
Winds: from the SSE (160 degrees) at 10 MPH (9 knots; 4.6 m/s)
Visibility: 1.80 miles (2.90 km)
Ceiling: 400 feet AGL
Clouds: scattered clouds at 200 feet AGL
overcast cloud deck at 400 feet AGL
Weather: BR  (mist)

METAR text: SBSP 240514Z AUTO 16009KT 2700 BR SCT002 OVC005 18/16 Q1019
Conditions at: SBSP (SAO PAULO/CONGON, BR) observed 0514 UTC 24 October 2018
Temperature: 18.0°C (64°F)
Dewpoint: 16.0°C (61°F) [RH = 88%]
Pressure (altimeter): 30.09 inches Hg (1019.0 mb)
Winds: from the SSE (160 degrees) at 10 MPH (9 knots; 4.6 m/s)
Visibility: 1.68 miles (2.70 km)
Ceiling: 500 feet AGL
Clouds: scattered clouds at 200 feet AGL
overcast cloud deck at 500 feet AGL
Weather: BR  (mist)

Forecast for: SBSP (SAO PAULO/CONGON, BR)
Text: TAF SBSP 240200Z 2406/2506 14007KT 8000 OVC007 TN17/2409Z TX20/2417Z
Forecast period: 0600 to 1300 UTC 24 October 2018
Forecast type: FROM: standard forecast or significant change
Winds: from the SE (140 degrees) at 8 MPH (7 knots; 3.6 m/s)
Visibility: 5 miles (8 km)
Ceiling: 700 feet AGL
Clouds: overcast cloud deck at 700 feet AGL
Weather: no significant weather forecast for this period
Text: PROB30 2407/2411 4000 BR OVC004
Forecast period: 0700 to 1100 UTC 24 October 2018
Forecast type: PROBABLE: 30 percent likelihood of the following during this time
Visibility: 2.49 miles (4.01 km)
Ceiling: 400 feet AGL
Clouds: overcast cloud deck at 400 feet AGL
Weather: BR  (mist)
Text: BECMG 2413/2415 BKN015
Forecast period: 1300 to 1500 UTC 24 October 2018
Forecast type: BECOMING: Conditions expected to become as follows by 1500 UTC 24 October 2018
Winds: from the SE (140 degrees) at 8 MPH (7 knots; 3.6 m/s)
Visibility: 5 miles (8 km)
Ceiling: 1500 feet AGL
Clouds: broken clouds at 1500 feet AGL
Weather: no significant weather forecast for this period
Text: BECMG 2415/2417 7000 RA BKN010
Forecast period: 1500 to 1900 UTC 24 October 2018
Forecast type: BECOMING: Conditions expected to become as follows by 1700 UTC 24 October 2018
Winds: from the SE (140 degrees) at 8 MPH (7 knots; 3.6 m/s)
Visibility: 4 miles (7 km)
Ceiling: 1000 feet AGL
Clouds: broken clouds at 1000 feet AGL
Weather: RA  (moderate rain)
Text: BECMG 2419/2421 16008KT 7000 RA
Forecast period: 1900 UTC 24 October 2018 to 0100 UTC 25 October 2018
Forecast type: BECOMING: Conditions expected to become as follows by 2100 UTC 24 October 2018
Winds: from the SSE (160 degrees) at 9 MPH (8 knots; 4.1 m/s)
Visibility: 4 miles (7 km)
Ceiling: 1000 feet AGL
Clouds: broken clouds at 1000 feet AGL
Weather: RA  (moderate rain)
Text: PROB30 2421/2424 13005KT 4000 RA BR BKN007
Forecast period: 2100 UTC 24 October 2018 to 0000 UTC 25 October 2018
Forecast type: PROBABLE: 30 percent likelihood of the following during this time
Winds: from the SE (130 degrees) at 6 MPH (5 knots; 2.6 m/s)
Visibility: 2.49 miles (4.01 km)
Ceiling: 700 feet AGL
Clouds: broken clouds at 700 feet AGL
Weather: RA BR  (moderate rain, mist)
Text: BECMG 2501/2503 8000 NSW BKN008 RMK PHG
Forecast period: 0100 to 0600 UTC 25 October 2018
Forecast type: BECOMING: Conditions expected to become as follows by 0300 UTC 25 October 2018
Winds: from the SSE (160 degrees) at 9 MPH (8 knots; 4.1 m/s)
Visibility: 5 miles (8 km)
Ceiling: 800 feet AGL
Clouds: broken clouds at 800 feet AGL
Weather: NSW  (no significant weather)

 AIRPORT MAP

 RUNWAY INFORMATION
Runway 17L Runway length 4708 ft Runway width 148 ft
Runway elevation 0 ft Runway displaced threshold 0 ft Runway heading 0
Runway 35R Runway length 4708 ft Runway width 148 ft
Runway elevation 0 ft Runway displaced threshold 0 ft Runway heading 0
Runway 17R Runway length 6365 ft Runway width 148 ft
Runway elevation 0 ft Runway displaced threshold 0 ft Runway heading 0
Runway 35L Runway length 6365 ft Runway width 148 ft
Runway elevation 0 ft Runway displaced threshold 0 ft Runway heading 0

 AIRPORT FREQUENCIES
Type APP Name SAO PAULO Frequency 119.8 MHZ
Type ATIS Name ATIS Frequency 127.65 MHZ
Type CLD Name CLNC DEL Frequency 120.6 MHZ
Type GND Name GND Frequency 121.9 MHZ
Type TWR Name SAO PAULO Frequency 127.15 MHZ

 AIRPORT NEAR NAVIGATION AIDS
Type VOR-DME Name Congonhas Frequency 116900 KHZ
Type NDB Name Diadema Frequency 200 KHZ
Type NDB Name Mada Frequency 290 KHZ
Type NDB Name Metro Frequency 330 KHZ
Type NDB Name Sao Paulo Frequency 250 KHZ



Powered by Virtual Airlines Manager [v2.6.2]